Flight Track Log - Related Links

Times and Time Zones

All times are in EDT time to prevent confusion due to time zone crossing. See the ACA130 flight status page for this flight to view local times or setup timezone preferences in your user account.

Time Position Orientation Groundspeed Altitude Reporting Facility
EDT Latitude Longitude Course Direction KTS MPH feet Rate Location/Type
Tue 05:15:28 PM 51.1000 -114.0333 187° South 80 92 3,600  Level Edmonton Center
Tue 05:24:28 PM 51.0167 -114.0500 180° South 190 219 5,500 400 Climbing Edmonton Center
Tue 05:25:28 PM 50.9500 -114.0333 171° South 240 276 7,600 2,050 Climbing Edmonton Center
Tue 05:26:28 PM 50.9667 -113.9000 79° East 290 334 9,600 2,300 Climbing Edmonton Center
Tue 05:27:28 PM 51.0000 -113.8000 62° Northeast 300 345 12,200 2,650 Climbing Edmonton Center
Tue 05:28:28 PM 51.0333 -113.6667 68° East 310 357 14,900 2,300 Climbing Edmonton Center
Tue 05:29:28 PM 51.0333 -113.5333 90° East 320 368 16,800 1,550 Climbing Edmonton Center
Tue 05:30:28 PM 51.0333 -113.3833 90° East 350 403 18,000 1,500 Climbing Edmonton Center
Tue 05:31:28 PM 51.0333 -113.2167 90° East 380 437 19,800 1,900 Climbing Edmonton Center
Tue 05:32:28 PM 51.0167 -113.0167 97° East 380 437 21,800 1,750 Climbing Edmonton Center
Tue 05:33:28 PM 51.0000 -112.8500 99° East 390 449 23,300 1,400 Climbing Edmonton Center
Tue 05:34:28 PM 50.9833 -112.6667 98° East 400 460 24,600 1,350 Climbing Edmonton Center
Tue 05:35:28 PM 50.9833 -112.5000 90° East 420 483 26,000 1,200 Climbing Edmonton Center
Tue 05:36:28 PM 50.9667 -112.3167 98° East 420 483 27,000 1,050 Climbing Edmonton Center
Tue 05:37:28 PM 50.9333 -112.1167 105° East 430 495 28,100 1,050 Climbing Edmonton Center
Tue 05:38:28 PM 50.9333 -111.9333 90° East 440 506 29,100 950 Climbing Edmonton Center
Tue 05:39:28 PM 50.9167 -111.7167 97° East 450 518 30,000 800 Climbing Edmonton Center
Tue 05:40:28 PM 50.8833 -111.5167 105° East 460 529 30,700 950 Climbing Edmonton Center
Tue 05:41:28 PM 50.8833 -111.3000 90° East 450 518 31,900 1,150 Climbing Edmonton Center
Tue 05:42:28 PM 50.8833 -111.1167 90° East 450 518 33,000 950 Climbing Edmonton Center
Tue 05:43:28 PM 50.8667 -110.9333 98° East 440 506 33,800 700 Climbing Edmonton Center
Tue 05:44:28 PM 50.8667 -110.7167 90° East 440 506 34,400 550 Climbing Edmonton Center
Tue 05:45:28 PM 50.8667 -110.5333 90° East 440 506 34,900 300 Climbing Edmonton Center
Tue 05:46:28 PM 50.8500 -110.3167 97° East 450 518 35,000 50 Climbing Edmonton Center
Tue 05:47:28 PM 50.8500 -110.1167 90° East 450 518 35,000  Level Edmonton Center
Tue 05:48:28 PM 50.8333 -109.9333 98° East 440 506 35,000  Level Edmonton Center
Tue 05:49:28 PM 50.8333 -109.7500 90° East 440 506 35,000  Level Edmonton Center
Tue 05:50:28 PM 50.8167 -109.5667 98° East 440 506 35,000  Level Edmonton Center
Tue 05:51:28 PM 50.8167 -109.3500 90° East 450 518 35,000  Level Edmonton Center
Tue 05:52:28 PM 50.8000 -109.1500 97° East 450 518 35,000  Level Edmonton Center
Tue 05:53:28 PM 50.8000 -108.9333 90° East 450 518 35,000  Level Edmonton Center
Tue 05:54:27 PM 50.8000 -108.7833 90° East 460 529 35,000  Level Winnipeg Center
Tue 05:55:27 PM 50.7833 -108.6000 98° East 460 529 35,000  Level Winnipeg Center
Tue 05:56:27 PM 50.7667 -108.3833 97° East 450 518 35,000  Level Winnipeg Center
Tue 05:57:27 PM 50.7500 -108.1833 97° East 450 518 35,000  Level Winnipeg Center
Tue 05:58:27 PM 50.7500 -108.0000 90° East 450 518 35,000  Level Winnipeg Center
Tue 05:59:27 PM 50.7500 -107.7833 90° East 450 518 35,000  Level Winnipeg Center
Tue 06:00:27 PM 50.7333 -107.6000 98° East 450 518 35,000  Level Winnipeg Center
Tue 06:01:27 PM 50.7167 -107.4000 97° East 450 518 35,000  Level Winnipeg Center
Tue 06:02:27 PM 50.7000 -107.2167 98° East 450 518 35,000  Level Winnipeg Center
Tue 06:03:27 PM 50.7000 -107.0000 90° East 450 518 35,000  Level Winnipeg Center
Tue 06:04:27 PM 50.6833 -106.8167 98° East 450 518 35,000  Level Winnipeg Center
Tue 06:05:27 PM 50.6667 -106.6167 97° East 450 518 35,000  Level Winnipeg Center
Tue 06:06:27 PM 50.6500 -106.4333 98° East 450 518 35,000  Level Winnipeg Center
Tue 06:07:27 PM 50.6333 -106.2167 97° East 450 518 35,000  Level Winnipeg Center
Tue 06:08:27 PM 50.6333 -106.0333 90° East 450 518 35,000  Level Winnipeg Center
Tue 06:09:27 PM 50.6167 -105.8333 97° East 440 506 35,000  Level Winnipeg Center
Tue 06:10:27 PM 50.5833 -105.6500 106° East 440 506 35,000  Level Winnipeg Center
Tue 06:11:27 PM 50.5667 -105.4333 97° East 450 518 35,000  Level Winnipeg Center
Tue 06:12:27 PM 50.5667 -105.2500 90° East 450 518 35,000  Level Winnipeg Center
Tue 06:13:27 PM 50.5500 -105.0667 98° East 450 518 35,000  Level Winnipeg Center
Tue 06:14:27 PM 50.5333 -104.8500 97° East 450 518 35,000  Level Winnipeg Center
Tue 06:15:27 PM 50.5333 -104.6667 90° East 450 518 35,000  Level Winnipeg Center
Tue 06:16:27 PM 50.5000 -104.4667 105° East 440 506 35,000  Level Winnipeg Center
Tue 06:17:27 PM 50.4833 -104.2833 98° East 450 518 35,000  Level Winnipeg Center
Tue 06:18:27 PM 50.4833 -104.0667 90° East 450 518 35,000  Level Winnipeg Center
Tue 06:19:27 PM 50.4500 -103.8833 106° East 450 518 35,000  Level Winnipeg Center
Tue 06:20:27 PM 50.4500 -103.7000 90° East 450 518 35,000  Level Winnipeg Center
Tue 06:21:27 PM 50.4333 -103.5167 98° East 450 518 35,000  Level Winnipeg Center
Tue 06:22:27 PM 50.4000 -103.3000 103° East 450 518 35,000  Level Winnipeg Center
Tue 06:23:27 PM 50.4000 -103.1167 90° East 450 518 35,000  Level Winnipeg Center
Tue 06:24:27 PM 50.3833 -102.9000 97° East 450 518 35,000  Level Winnipeg Center
Tue 06:25:27 PM 50.3500 -102.7167 106° East 450 518 35,000  Level Winnipeg Center
Tue 06:26:27 PM 50.3500 -102.5333 90° East 450 518 35,000  Level Winnipeg Center
Tue 06:27:27 PM 50.3167 -102.3333 105° East 450 518 35,000  Level Winnipeg Center
Tue 06:28:27 PM 50.3000 -102.1500 98° East 450 518 35,000  Level Winnipeg Center
Tue 06:29:27 PM 50.2667 -101.9500 105° East 450 518 35,000  Level Winnipeg Center
Tue 06:30:27 PM 50.2500 -101.7500 97° East 450 518 35,000  Level Winnipeg Center
Tue 06:31:27 PM 50.2000 -101.5667 113° Southeast 450 518 35,000  Level Winnipeg Center
Tue 06:32:27 PM 50.1833 -101.3833 98° East 450 518 35,000  Level Winnipeg Center
Tue 06:33:27 PM 50.1500 -101.2000 106° East 450 518 35,000  Level Winnipeg Center
Tue 06:34:27 PM 50.1333 -101.0167 98° East 450 518 35,000  Level Winnipeg Center
Tue 06:35:27 PM 50.1000 -100.8000 103° East 450 518 35,000  Level Winnipeg Center
Tue 06:36:27 PM 50.0667 -100.6167 106° East 450 518 35,000  Level Winnipeg Center
Tue 06:37:27 PM 50.0500 -100.4333 98° East 450 518 35,000  Level Winnipeg Center
Tue 06:38:27 PM 50.0167 -100.2500 106° East 460 529 35,000  Level Winnipeg Center
Tue 06:39:27 PM 49.9833 -100.0333 103° East 460 529 35,000  Level Winnipeg Center
Tue 06:40:27 PM 49.9667 -99.8500 98° East 460 529 35,000  Level Winnipeg Center
Tue 06:41:27 PM 49.9333 -99.6500 104° East 450 518 35,000  Level Winnipeg Center
Tue 06:42:27 PM 49.9167 -99.4667 98° East 450 518 35,000  Level Winnipeg Center
Tue 06:43:27 PM 49.8833 -99.2500 103° East 450 518 35,000  Level Winnipeg Center
Tue 06:44:27 PM 49.8833 -99.0667 90° East 450 518 35,000  Level Winnipeg Center
Tue 06:45:27 PM 49.8500 -98.8833 106° East 450 518 35,000  Level Winnipeg Center
Tue 06:46:27 PM 49.8167 -98.7000 106° East 450 518 35,000  Level Winnipeg Center
Tue 06:47:27 PM 49.8000 -98.5000 97° East 450 518 35,000  Level Winnipeg Center
Tue 06:48:27 PM 49.7667 -98.3167 106° East 450 518 35,000 -50 Level Winnipeg Center
Tue 06:49:27 PM 49.7500 -98.1333 98° East 450 518 34,900  Descending Winnipeg Center
Tue 06:50:27 PM 49.7167 -97.9167 103° East 450 518 35,000 50 Climbing Winnipeg Center
Tue 06:51:27 PM 49.7000 -97.7500 99° East 450 518 35,000  Level Winnipeg Center
Tue 06:52:27 PM 49.6833 -97.5333 97° East 450 518 35,000  Level Winnipeg Center
Tue 06:53:27 PM 49.6500 -97.3500 106° East 450 518 35,000  Level Winnipeg Center
Tue 06:54:27 PM 49.6167 -97.1500 104° East 450 518 35,000  Level Winnipeg Center
Tue 06:55:27 PM 49.6000 -96.9667 98° East 450 518 35,000  Level Winnipeg Center
Tue 06:56:27 PM 49.5667 -96.7833 106° East 450 518 35,000  Level Winnipeg Center
Tue 06:57:27 PM 49.5500 -96.5833 97° East 460 529 35,000  Level Winnipeg Center
Tue 06:58:27 PM 49.5167 -96.4000 106° East 460 529 35,000  Level Winnipeg Center
Tue 06:59:27 PM 49.4667 -96.2000 111° Southeast 460 529 35,000 50 Level Winnipeg Center
Tue 07:00:27 PM 49.4500 -96.0167 98° East 460 529 35,100 -50 Climbing Winnipeg Center
Tue 07:01:27 PM 49.4167 -95.8333 106° East 450 518 34,900 -50 Descending Winnipeg Center
Tue 07:02:27 PM 49.3833 -95.6333 104° East 450 518 35,000 50 Climbing Winnipeg Center
Tue 07:03:27 PM 49.3667 -95.4500 98° East 460 529 35,000  Level Winnipeg Center
Tue 07:04:27 PM 49.3333 -95.2500 104° East 460 529 35,000  Level Winnipeg Center
Tue 07:05:27 PM 49.3000 -95.0500 104° East 460 529 35,000  Level Winnipeg Center
Tue 07:06:27 PM 49.2667 -94.8667 106° East 460 529 35,000  Level Winnipeg Center
Tue 07:07:27 PM 49.2333 -94.6833 105° East 460 529 35,000  Level Winnipeg Center
Tue 07:08:27 PM 49.2000 -94.4833 104° East 460 529 35,000  Level Winnipeg Center
Tue 07:09:27 PM 49.1833 -94.3000 98° East 460 529 35,000  Level Winnipeg Center
Tue 07:10:27 PM 49.1333 -94.1000 111° Southeast 460 529 35,000  Level Winnipeg Center
Tue 07:11:27 PM 49.1167 -93.9333 99° East 460 529 35,000  Level Winnipeg Center
Tue 07:12:27 PM 49.0833 -93.7167 103° East 460 529 35,000  Level Winnipeg Center
Tue 07:13:27 PM 49.0333 -93.5500 115° Southeast 460 529 35,000  Level Winnipeg Center
Tue 07:14:27 PM 49.0167 -93.3667 98° East 460 529 35,000  Level Winnipeg Center
Tue 07:15:27 PM 48.9833 -93.1667 104° East 460 529 35,000  Level Winnipeg Center
Tue 07:16:27 PM 48.9500 -92.9667 104° East 450 518 35,000  Level Winnipeg Center
Tue 07:17:27 PM 48.9167 -92.8000 107° East 460 529 35,000  Level Winnipeg Center
Tue 07:18:27 PM 48.8667 -92.6167 112° Southeast 450 518 35,000  Level Winnipeg Center
Tue 07:19:27 PM 48.8500 -92.4167 97° East 460 529 35,000  Level Winnipeg Center
Tue 07:20:27 PM 48.8167 -92.2500 107° East 460 529 35,000  Level Winnipeg Center
Tue 07:21:27 PM 48.7667 -92.0500 111° Southeast 470 541 35,000  Level Winnipeg Center
Tue 07:22:27 PM 48.7333 -91.8500 104° East 470 541 35,000  Level Winnipeg Center
Tue 07:23:27 PM 48.7000 -91.6500 104° East 470 541 35,000  Level Winnipeg Center
Tue 07:24:27 PM 48.6500 -91.4667 112° Southeast 470 541 35,000  Level Winnipeg Center
Tue 07:25:27 PM 48.6333 -91.2667 97° East 470 541 35,000  Level Winnipeg Center
Tue 07:26:27 PM 48.5833 -91.0667 111° Southeast 480 552 35,000  Level Winnipeg Center
Tue 07:27:27 PM 48.5333 -90.8833 112° Southeast 480 552 35,000  Level Winnipeg Center
Tue 07:28:27 PM 48.5167 -90.6833 97° East 480 552 35,000  Level Winnipeg Center
Tue 07:29:27 PM 48.4667 -90.5000 112° Southeast 470 541 35,000  Level Winnipeg Center
Tue 07:30:27 PM 48.4333 -90.3333 107° East 470 541 35,000  Level Winnipeg Center
Tue 07:31:27 PM 48.4000 -90.1167 103° East 470 541 35,000  Level Winnipeg Center
Tue 07:32:27 PM 48.3500 -89.9500 114° Southeast 470 541 35,000  Level Winnipeg Center
Tue 07:33:27 PM 48.3000 -89.7500 111° Southeast 470 541 35,000  Level Winnipeg Center
Tue 07:34:27 PM 48.2833 -89.5833 98° East 470 541 35,000  Level Winnipeg Center
Tue 07:35:27 PM 48.2333 -89.3833 111° Southeast 470 541 35,000  Level Winnipeg Center
Tue 07:36:27 PM 48.1833 -89.1833 110° East 470 541 35,000  Level Winnipeg Center
Tue 07:37:27 PM 48.1333 -89.0167 114° Southeast 470 541 35,000  Level Winnipeg Center
Tue 07:38:27 PM 48.0833 -88.8333 112° Southeast 470 541 35,000  Level Winnipeg Center
Tue 07:39:27 PM 48.0500 -88.6500 105° East 460 529 35,000  Level Winnipeg Center
Tue 07:40:27 PM 47.9833 -88.4667 118° Southeast 460 529 35,000  Level Winnipeg Center
Tue 07:41:27 PM 47.9333 -88.3000 114° Southeast 460 529 35,000  Level Winnipeg Center
Tue 07:42:27 PM 47.8833 -88.1333 114° Southeast 460 529 35,000  Level Winnipeg Center
Tue 07:43:27 PM 47.8333 -87.9500 112° Southeast 460 529 35,000  Level Winnipeg Center
Tue 07:44:27 PM 47.7833 -87.7833 114° Southeast 470 541 35,000  Level Winnipeg Center
Tue 07:45:27 PM 47.7333 -87.5833 110° East 470 541 35,000  Level Winnipeg Center
Tue 07:46:27 PM 47.6833 -87.4000 112° Southeast 470 541 35,000  Level Winnipeg Center
Tue 07:47:27 PM 47.6500 -87.2333 106° East 470 541 35,000  Level Winnipeg Center
Tue 07:48:27 PM 47.6000 -87.0667 114° Southeast 470 541 35,000  Level Winnipeg Center
Tue 07:49:27 PM 47.5500 -86.8833 112° Southeast 470 541 35,000  Level Winnipeg Center
Tue 07:50:27 PM 47.5000 -86.7167 114° Southeast 470 541 35,000  Level Winnipeg Center
Tue 07:51:27 PM 47.4333 -86.5333 118° Southeast 470 541 35,000  Level Winnipeg Center
Tue 07:52:10 PM 47.4000 -86.4500 121° Southeast 470 541 35,000  Level Toronto Center
Tue 07:53:10 PM 47.3333 -86.3000 123° Southeast 470 541 35,000  Level Toronto Center
Tue 07:54:10 PM 47.2667 -86.1167 118° Southeast 470 541 35,000  Level Toronto Center
Tue 07:55:10 PM 47.2167 -85.9667 116° Southeast 470 541 35,000  Level Toronto Center
Tue 07:56:10 PM 47.1500 -85.7833 118° Southeast 470 541 35,000  Level Toronto Center
Tue 07:57:10 PM 47.0833 -85.6000 118° Southeast 470 541 35,000  Level Toronto Center
Tue 07:58:10 PM 47.0167 -85.4500 123° Southeast 470 541 35,000  Level Toronto Center
Tue 07:59:10 PM 46.9500 -85.2667 118° Southeast 470 541 35,000  Level Toronto Center
Tue 08:00:10 PM 46.8833 -85.1167 123° Southeast 470 541 35,000  Level Toronto Center
Tue 08:01:10 PM 46.8333 -84.9500 114° Southeast 480 552 35,000  Level Toronto Center
Tue 08:02:10 PM 46.7500 -84.7667 124° Southeast 480 552 35,000  Level Toronto Center
Tue 08:03:10 PM 46.7000 -84.6167 116° Southeast 480 552 35,000  Level Toronto Center
Tue 08:04:10 PM 46.6333 -84.4333 118° Southeast 470 541 35,000  Level Toronto Center
Tue 08:05:10 PM 46.5500 -84.2667 126° Southeast 470 541 35,000  Level Toronto Center
Tue 08:06:10 PM 46.5000 -84.1167 116° Southeast 470 541 35,000  Level Toronto Center
Tue 08:07:10 PM 46.4333 -83.9333 118° Southeast 480 552 35,000  Level Toronto Center
Tue 08:08:10 PM 46.3500 -83.7833 129° Southeast 470 541 35,000  Level Toronto Center
Tue 08:09:10 PM 46.3000 -83.6167 113° Southeast 470 541 35,000  Level Toronto Center
Tue 08:10:10 PM 46.2333 -83.4333 118° Southeast 470 541 35,000  Level Toronto Center
Tue 08:11:10 PM 46.1667 -83.3000 126° Southeast 480 552 35,000  Level Toronto Center
Tue 08:12:10 PM 46.1000 -83.1167 118° Southeast 480 552 35,000  Level Toronto Center
Tue 08:13:10 PM 46.0333 -82.9667 123° Southeast 480 552 35,000  Level Toronto Center
Tue 08:14:10 PM 45.9500 -82.8000 126° Southeast 480 552 35,000  Level Toronto Center
Tue 08:15:10 PM 45.9000 -82.6333 113° Southeast 480 552 35,000  Level Toronto Center
Tue 08:16:10 PM 45.8333 -82.4500 118° Southeast 480 552 35,000  Level Toronto Center
Tue 08:17:10 PM 45.7500 -82.3167 132° Southeast 480 552 35,000  Level Toronto Center
Tue 08:18:10 PM 45.6833 -82.1333 117° Southeast 480 552 35,000  Level Toronto Center
Tue 08:19:10 PM 45.6167 -81.9667 120° Southeast 480 552 35,000  Level Toronto Center
Tue 08:20:10 PM 45.5500 -81.8167 122° Southeast 480 552 35,000  Level Toronto Center
Tue 08:21:10 PM 45.4833 -81.6500 120° Southeast 480 552 35,000  Level Toronto Center
Tue 08:22:10 PM 45.4000 -81.4833 125° Southeast 480 552 35,000  Level Toronto Center
Tue 08:23:10 PM 45.3333 -81.3333 122° Southeast 480 552 35,000  Level Toronto Center
Tue 08:24:10 PM 45.2500 -81.1667 125° Southeast 480 552 35,000 -300 Level Toronto Center
Tue 08:25:10 PM 45.1667 -81.0500 135° Southeast 470 541 34,400 -800 Descending Toronto Center
Tue 08:26:10 PM 45.0500 -80.9500 149° Southeast 460 529 33,400 -1,150 Descending Toronto Center
Tue 08:27:10 PM 44.9500 -80.8833 155° Southeast 440 506 32,100 -1,750 Descending Toronto Center
Tue 08:28:10 PM 44.8667 -80.7833 140° Southeast 420 483 29,900 -2,050 Descending Toronto Center
Tue 08:29:10 PM 44.7667 -80.6833 145° Southeast 410 472 28,000 -1,900 Descending Toronto Center
Tue 08:30:10 PM 44.6667 -80.6000 149° Southeast 400 460 26,100 -1,850 Descending Toronto Center
Tue 08:31:10 PM 44.5833 -80.5167 145° Southeast 390 449 24,300 -1,800 Descending Toronto Center
Tue 08:32:10 PM 44.5000 -80.4500 150° Southeast 370 426 22,500 -1,700 Descending Toronto Center
Tue 08:33:10 PM 44.4167 -80.3833 150° Southeast 360 414 20,900 -1,650 Descending Toronto Center
Tue 08:34:10 PM 44.3333 -80.3167 150° Southeast 350 403 19,200 -1,700 Descending Toronto Center
Tue 08:35:10 PM 44.2500 -80.2333 144° Southeast 340 391 17,500 -1,700 Descending Toronto Center
Tue 08:36:10 PM 44.1667 -80.1667 150° Southeast 340 391 15,800 -1,700 Descending Toronto Center
Tue 08:37:10 PM 44.1000 -80.1000 144° Southeast 330 380 14,100 -1,700 Descending Toronto Center
Tue 08:38:10 PM 44.0333 -80.0000 133° Southeast 320 368 12,400 -1,450 Descending Toronto Center
Tue 08:39:10 PM 43.9667 -79.9333 144° Southeast 300 345 11,200 -1,350 Descending Toronto Center
Tue 08:40:10 PM 43.9000 -79.8667 144° Southeast 290 334 9,700 -1,550 Descending Toronto Center
Tue 08:41:10 PM 43.8333 -79.8167 152° Southeast 290 334 8,100 -850 Descending Toronto Center
Tue 08:42:10 PM 43.7667 -79.7500 144° Southeast 280 322 8,000 -400 Descending Toronto Center
Tue 08:43:10 PM 43.7167 -79.7500 180° South 260 299 7,300 -1,000 Descending Toronto Center
Tue 08:44:10 PM 43.6667 -79.8167 224° Southwest 230 265 6,000 -1,200 Descending Toronto Center
Tue 08:45:10 PM 43.6333 -79.8667 227° Southwest 220 253 4,900 -950 Descending Toronto Center
Tue 08:46:10 PM 43.5833 -79.8667 180° South 210 242 4,100 -700 Descending Toronto Center
Tue 08:47:10 PM 43.5667 -79.8000 109° East 210 242 3,500 -800 Descending Toronto Center
Tue 08:48:10 PM 43.6000 -79.7333 55° Northeast 200 230 2,500 -950 Descending Toronto Center
Tue 08:49:10 PM 43.6333 -79.7000 36° Northeast 160 184 1,600 -900 Descending Toronto Center

Login

Don't have an account? Register now (free) for customized features, flight alerts, and more!